createdAt,value
2023-08-08T00:01:28.322Z,16.14
2023-08-08T00:03:54.834Z,16.13
2023-08-08T00:06:21.304Z,16.13
2023-08-08T00:08:47.720Z,16.13
2023-08-08T00:11:14.181Z,16.11
2023-08-08T00:13:40.634Z,16.13
2023-08-08T00:16:07.161Z,16.12
2023-08-08T00:18:33.639Z,16.13
2023-08-08T00:21:00.144Z,16.11
2023-08-08T00:23:26.577Z,16.10
2023-08-08T00:25:53.641Z,16.11
2023-08-08T00:28:20.197Z,16.11
2023-08-08T00:30:46.737Z,16.11
2023-08-08T00:33:13.230Z,16.12
2023-08-08T00:35:39.813Z,16.12
2023-08-08T00:38:06.410Z,16.11
2023-08-08T00:40:32.826Z,16.12
2023-08-08T00:42:59.308Z,16.13
2023-08-08T00:45:25.889Z,16.13
2023-08-08T00:47:52.713Z,16.14
2023-08-08T00:50:19.419Z,16.15
2023-08-08T00:52:46.360Z,16.15
2023-08-08T00:55:13.254Z,16.14
2023-08-08T00:57:39.846Z,16.12
2023-08-08T01:00:08.189Z,16.10
2023-08-08T01:02:34.798Z,16.09
2023-08-08T01:05:02.781Z,16.09
2023-08-08T01:07:44.771Z,16.10
2023-08-08T01:10:16.793Z,16.12
2023-08-08T01:12:49.648Z,16.12
2023-08-08T01:15:18.052Z,16.15
2023-08-08T01:17:45.242Z,16.17
2023-08-08T01:20:15.723Z,16.18
2023-08-08T01:23:13.287Z,16.21
2023-08-08T01:25:41.391Z,16.21
2023-08-08T01:28:08.824Z,16.21
2023-08-08T01:30:35.250Z,16.22
2023-08-08T01:33:02.444Z,16.24
2023-08-08T01:35:32.479Z,16.24
2023-08-08T01:38:09.766Z,16.23
2023-08-08T01:40:39.000Z,16.21
2023-08-08T01:43:05.743Z,16.20
2023-08-08T01:45:32.189Z,16.15
2023-08-08T01:47:58.664Z,16.14
2023-08-08T01:50:26.549Z,16.16
2023-08-08T01:52:53.000Z,16.18
2023-08-08T01:55:20.790Z,16.19
2023-08-08T01:57:47.256Z,16.20
2023-08-08T02:00:14.098Z,16.20
2023-08-08T02:02:43.985Z,16.19
2023-08-08T02:05:11.733Z,16.19
2023-08-08T02:07:38.590Z,16.17
2023-08-08T02:10:05.437Z,16.16
2023-08-08T02:12:32.213Z,16.16
2023-08-08T02:14:58.842Z,16.16
2023-08-08T02:17:26.626Z,16.18
2023-08-08T02:19:53.604Z,16.19
2023-08-08T02:22:20.123Z,16.20
2023-08-08T02:24:46.586Z,16.19
2023-08-08T02:27:13.875Z,16.19
2023-08-08T02:29:40.323Z,16.17
2023-08-08T02:32:07.253Z,16.18
2023-08-08T02:34:33.722Z,16.18
2023-08-08T02:37:00.164Z,16.16
2023-08-08T02:39:26.651Z,16.13
2023-08-08T02:41:53.081Z,16.12
2023-08-08T02:44:20.751Z,16.09
2023-08-08T02:46:47.268Z,16.10
2023-08-08T02:49:13.958Z,16.10
2023-08-08T02:51:40.665Z,16.07
2023-08-08T02:54:07.539Z,16.09
2023-08-08T02:56:35.867Z,16.09
2023-08-08T02:59:02.543Z,16.08
2023-08-08T03:01:29.177Z,16.09
2023-08-08T03:03:58.419Z,16.06
2023-08-08T03:06:26.357Z,16.03
2023-08-08T03:08:53.083Z,16.04
2023-08-08T03:11:19.537Z,16.02
2023-08-08T03:13:47.914Z,16.02
2023-08-08T03:16:14.529Z,16.00
2023-08-08T03:18:41.744Z,16.01
2023-08-08T03:21:08.328Z,16.00
2023-08-08T03:23:35.489Z,15.96
2023-08-08T03:26:02.040Z,15.95
2023-08-08T03:28:28.503Z,15.94
2023-08-08T03:30:56.889Z,15.94
2023-08-08T03:33:23.598Z,15.94
2023-08-08T03:35:50.060Z,15.94
2023-08-08T03:38:18.249Z,15.93
2023-08-08T03:40:45.170Z,15.91
2023-08-08T03:43:12.055Z,15.89
2023-08-08T03:45:38.565Z,15.89
2023-08-08T03:48:05.386Z,15.89
2023-08-08T03:50:32.062Z,15.88
2023-08-08T03:52:58.872Z,15.83
2023-08-08T03:55:25.407Z,15.83
2023-08-08T03:57:51.924Z,15.85
2023-08-08T04:00:18.794Z,15.83
2023-08-08T04:02:45.311Z,15.86
2023-08-08T04:05:13.316Z,15.83
2023-08-08T04:07:39.838Z,15.85
2023-08-08T04:10:06.696Z,15.85
2023-08-08T04:12:33.928Z,15.84
2023-08-08T04:15:00.522Z,15.84
2023-08-08T04:17:27.045Z,15.85
2023-08-08T04:19:53.665Z,15.81
2023-08-08T04:22:20.119Z,15.78
2023-08-08T04:24:46.718Z,15.76
2023-08-08T04:27:13.249Z,15.74
2023-08-08T04:29:39.721Z,15.74
2023-08-08T04:32:06.568Z,15.73
2023-08-08T04:34:33.050Z,15.71
2023-08-08T04:36:59.493Z,15.71
2023-08-08T04:39:25.945Z,15.71
2023-08-08T04:41:52.430Z,15.69
2023-08-08T04:44:18.893Z,15.69
2023-08-08T04:46:45.481Z,15.67
2023-08-08T04:49:11.920Z,15.67
2023-08-08T04:51:38.359Z,15.65
2023-08-08T04:54:05.040Z,15.62
2023-08-08T04:56:31.561Z,15.59
2023-08-08T04:58:58.236Z,15.61
2023-08-08T05:01:24.754Z,15.61
2023-08-08T05:03:53.688Z,15.63
2023-08-08T05:06:21.805Z,15.63
2023-08-08T05:08:49.628Z,15.65
2023-08-08T05:11:16.094Z,15.64
2023-08-08T05:13:43.895Z,15.66
2023-08-08T05:16:10.374Z,15.64
2023-08-08T05:18:36.893Z,15.65
2023-08-08T05:21:03.397Z,15.63
2023-08-08T05:23:29.835Z,15.64
2023-08-08T05:25:56.296Z,15.64
2023-08-08T05:28:22.858Z,15.63
2023-08-08T05:30:49.398Z,15.64
2023-08-08T05:33:15.867Z,15.61
2023-08-08T05:35:42.294Z,15.63
2023-08-08T05:38:08.782Z,15.65
2023-08-08T05:40:37.163Z,15.66
2023-08-08T05:43:04.680Z,15.66
2023-08-08T05:45:31.209Z,15.64
2023-08-08T05:47:57.885Z,15.67
2023-08-08T05:50:24.486Z,15.71
2023-08-08T05:52:50.963Z,15.73
2023-08-08T05:55:17.603Z,15.74
2023-08-08T05:57:44.045Z,15.75
2023-08-08T06:00:12.368Z,15.75
2023-08-08T06:02:42.442Z,15.78
2023-08-08T06:05:09.298Z,15.80
2023-08-08T06:07:36.015Z,15.82
2023-08-08T06:10:02.540Z,15.87
2023-08-08T06:12:29.168Z,15.91
2023-08-08T06:14:55.673Z,15.97
2023-08-08T06:17:24.428Z,16.02
2023-08-08T06:19:51.410Z,16.04
2023-08-08T06:22:18.222Z,16.10
2023-08-08T06:24:44.933Z,16.19
2023-08-08T06:27:11.650Z,16.26
2023-08-08T06:29:38.057Z,16.29
2023-08-08T06:32:04.680Z,16.34
2023-08-08T06:34:31.235Z,16.37
2023-08-08T06:36:57.746Z,16.35
2023-08-08T06:39:24.312Z,16.31
2023-08-08T06:41:50.791Z,16.34
2023-08-08T06:44:22.476Z,16.34
2023-08-08T06:46:48.974Z,16.39
2023-08-08T06:49:15.381Z,16.42
2023-08-08T06:51:41.768Z,16.41
2023-08-08T06:54:08.942Z,16.45
2023-08-08T06:56:35.448Z,16.49
2023-08-08T06:59:01.884Z,16.49
2023-08-08T07:01:28.630Z,16.42
2023-08-08T07:03:55.145Z,16.45
2023-08-08T07:06:21.557Z,16.47
2023-08-08T07:08:47.989Z,16.50
2023-08-08T07:11:14.476Z,16.52
2023-08-08T07:13:41.764Z,16.57
2023-08-08T07:16:08.283Z,16.60
2023-08-08T07:18:34.812Z,16.62
2023-08-08T07:21:01.592Z,16.68
2023-08-08T07:23:28.069Z,16.68
2023-08-08T07:25:54.504Z,16.67
2023-08-08T07:28:20.919Z,16.66
2023-08-08T07:30:47.446Z,16.66
2023-08-08T07:33:14.677Z,16.64
2023-08-08T07:35:41.274Z,16.60
2023-08-08T07:38:07.860Z,16.64
2023-08-08T07:40:34.438Z,16.61
2023-08-08T07:43:00.909Z,16.58
2023-08-08T07:45:27.391Z,16.60
2023-08-08T07:47:53.873Z,16.65
2023-08-08T07:50:20.436Z,16.72
2023-08-08T07:52:46.881Z,16.79
2023-08-08T07:55:13.699Z,16.80
2023-08-08T07:57:40.623Z,16.79
2023-08-08T08:00:13.079Z,16.78
2023-08-08T08:02:44.750Z,16.86
2023-08-08T08:05:11.779Z,16.85
2023-08-08T08:07:39.171Z,16.90
2023-08-08T08:10:08.685Z,16.89
2023-08-08T08:12:36.011Z,16.88
2023-08-08T08:15:03.294Z,16.89
2023-08-08T08:17:30.259Z,16.92
2023-08-08T08:19:56.695Z,16.93
2023-08-08T08:22:23.373Z,16.90
2023-08-08T08:24:49.818Z,16.97
2023-08-08T08:27:16.402Z,17.07
2023-08-08T08:29:42.905Z,17.13
2023-08-08T08:32:09.843Z,17.07
2023-08-08T08:34:36.323Z,17.03
2023-08-08T08:37:03.164Z,17.12
2023-08-08T08:39:29.629Z,17.16
2023-08-08T08:42:02.818Z,17.12
2023-08-08T08:44:32.210Z,17.10
2023-08-08T08:47:02.546Z,17.09
2023-08-08T08:49:31.824Z,17.13
2023-08-08T08:52:06.047Z,17.21
2023-08-08T08:54:33.828Z,17.22
2023-08-08T08:57:00.334Z,17.15
2023-08-08T08:59:27.044Z,17.17
2023-08-08T09:01:54.700Z,17.17
2023-08-08T09:04:22.899Z,17.13
2023-08-08T09:06:51.328Z,17.19
2023-08-08T09:09:18.615Z,17.21
2023-08-08T09:11:50.594Z,17.26
2023-08-08T09:14:21.718Z,17.25
2023-08-08T09:16:49.156Z,17.26
2023-08-08T09:19:17.007Z,17.27
2023-08-08T09:21:43.451Z,17.22
2023-08-08T09:24:10.483Z,17.18
2023-08-08T09:26:37.086Z,17.16
2023-08-08T09:29:04.591Z,17.26
2023-08-08T09:31:31.493Z,17.27
2023-08-08T09:34:00.465Z,17.23
2023-08-08T09:36:27.139Z,17.20
2023-08-08T09:38:54.847Z,17.16
2023-08-08T09:41:22.926Z,17.09
2023-08-08T09:43:50.924Z,17.10
2023-08-08T09:46:17.674Z,17.12
2023-08-08T09:48:44.699Z,17.24
2023-08-08T09:51:11.601Z,17.29
2023-08-08T09:53:39.839Z,17.26
2023-08-08T09:56:07.412Z,17.30
2023-08-08T09:58:34.485Z,17.34
2023-08-08T10:01:01.256Z,17.32
2023-08-08T10:03:29.473Z,17.33
2023-08-08T10:05:56.108Z,17.34
2023-08-08T10:08:22.973Z,17.29
2023-08-08T10:10:51.159Z,17.34
2023-08-08T10:13:24.804Z,17.38
2023-08-08T10:15:52.387Z,17.45
2023-08-08T10:18:22.096Z,17.54
2023-08-08T10:20:50.400Z,17.60
2023-08-08T10:23:18.069Z,17.65
2023-08-08T10:25:45.850Z,17.62
2023-08-08T10:28:26.297Z,17.66
2023-08-08T10:30:58.653Z,17.64
2023-08-08T10:33:27.692Z,17.58
2023-08-08T10:35:56.938Z,17.61
2023-08-08T10:38:27.846Z,17.65
2023-08-08T10:40:59.463Z,17.70
2023-08-08T10:43:28.203Z,17.81
2023-08-08T10:46:07.613Z,17.92
2023-08-08T10:48:50.147Z,17.93
2023-08-08T10:51:17.867Z,17.93
2023-08-08T10:53:44.359Z,17.94
2023-08-08T10:56:14.229Z,17.91
2023-08-08T10:58:43.098Z,17.95
2023-08-08T11:01:10.413Z,17.92
2023-08-08T11:03:40.175Z,17.85
2023-08-08T11:06:10.843Z,17.86
2023-08-08T11:08:39.585Z,17.90
2023-08-08T11:11:07.367Z,17.91
2023-08-08T11:13:34.229Z,17.84
2023-08-08T11:16:02.927Z,17.79
2023-08-08T11:18:29.693Z,17.75
2023-08-08T11:21:05.247Z,17.69
2023-08-08T11:23:39.946Z,17.81
2023-08-08T11:28:36.280Z,17.94
2023-08-08T11:31:02.842Z,17.90
2023-08-08T11:33:29.415Z,17.96
2023-08-08T11:35:57.758Z,17.98
2023-08-08T11:38:24.966Z,17.97
2023-08-08T11:40:53.483Z,17.83
2023-08-08T11:43:20.669Z,17.90
2023-08-08T11:45:50.409Z,17.94
2023-08-08T11:48:16.881Z,17.89
2023-08-08T11:50:45.596Z,17.91
2023-08-08T11:53:12.856Z,17.98
2023-08-08T11:55:39.407Z,18.04
2023-08-08T11:58:06.673Z,18.06
2023-08-08T12:00:33.203Z,18.05
2023-08-08T12:03:02.077Z,18.10
2023-08-08T12:05:29.082Z,18.08
2023-08-08T12:07:56.086Z,18.08
2023-08-08T12:10:24.317Z,18.08
2023-08-08T12:12:57.687Z,18.12
2023-08-08T12:15:24.486Z,18.21
2023-08-08T12:17:51.039Z,18.20
2023-08-08T12:20:17.689Z,18.16
2023-08-08T12:22:44.144Z,18.16
2023-08-08T12:25:10.639Z,18.12
2023-08-08T12:27:37.144Z,18.11
2023-08-08T12:30:03.892Z,18.09
2023-08-08T12:32:32.603Z,18.11
2023-08-08T12:34:59.133Z,18.08
2023-08-08T12:37:25.653Z,17.96
2023-08-08T12:39:52.482Z,18.01
2023-08-08T12:42:19.175Z,18.04
2023-08-08T12:44:46.332Z,18.03
2023-08-08T12:47:13.714Z,18.05
2023-08-08T12:49:42.257Z,18.11
2023-08-08T12:52:08.716Z,18.10
2023-08-08T12:54:37.141Z,18.12
2023-08-08T12:57:04.369Z,18.15
2023-08-08T12:59:31.368Z,18.20
2023-08-08T13:01:58.150Z,18.28
2023-08-08T13:04:25.119Z,18.26
2023-08-08T13:06:51.563Z,18.27
2023-08-08T13:09:18.116Z,18.34
2023-08-08T13:11:44.627Z,18.40
2023-08-08T13:14:11.080Z,18.42
2023-08-08T13:16:37.607Z,18.43
2023-08-08T13:19:04.958Z,18.42
2023-08-08T13:21:31.372Z,18.44
2023-08-08T13:23:58.734Z,18.45
2023-08-08T13:26:25.189Z,18.44
2023-08-08T13:28:51.733Z,18.31
2023-08-08T13:31:18.261Z,18.21
2023-08-08T13:33:44.800Z,18.20
2023-08-08T13:36:11.210Z,18.20
2023-08-08T13:38:37.737Z,18.23
2023-08-08T13:41:04.388Z,18.20
2023-08-08T13:43:31.717Z,18.24
2023-08-08T13:45:58.414Z,18.25
2023-08-08T13:48:24.957Z,18.26
2023-08-08T13:50:51.902Z,18.27
2023-08-08T13:53:18.428Z,18.38
2023-08-08T13:55:45.608Z,18.27
2023-08-08T13:58:12.175Z,18.29
2023-08-08T14:00:38.627Z,18.35
2023-08-08T14:03:05.227Z,18.32
2023-08-08T14:05:32.542Z,18.32
2023-08-08T14:07:59.040Z,18.41
2023-08-08T14:10:25.492Z,18.57
2023-08-08T14:12:51.946Z,18.68
2023-08-08T14:15:18.564Z,18.75
2023-08-08T14:17:46.543Z,18.77
2023-08-08T14:20:13.201Z,18.74
2023-08-08T14:22:39.667Z,18.80
2023-08-08T14:25:07.196Z,18.83
2023-08-08T14:27:33.947Z,18.81
2023-08-08T14:30:00.924Z,18.80
2023-08-08T14:32:27.550Z,18.85
2023-08-08T14:34:54.349Z,18.87
2023-08-08T14:37:21.326Z,18.83
2023-08-08T14:39:48.081Z,18.88
2023-08-08T14:42:14.701Z,18.92
2023-08-08T14:44:41.420Z,18.91
2023-08-08T14:47:08.453Z,18.91
2023-08-08T14:49:35.045Z,18.98
2023-08-08T14:52:01.795Z,18.95
2023-08-08T14:54:28.551Z,18.90
2023-08-08T14:56:55.073Z,18.84
2023-08-08T14:59:21.576Z,18.73
2023-08-08T15:01:48.072Z,18.67
2023-08-08T15:04:14.575Z,18.60
2023-08-08T15:06:41.689Z,18.68
2023-08-08T15:09:08.257Z,18.72
2023-08-08T15:11:34.666Z,18.79
2023-08-08T15:14:01.074Z,18.80
2023-08-08T15:16:27.527Z,18.81
2023-08-08T15:18:53.989Z,18.79
2023-08-08T15:21:20.639Z,18.83
2023-08-08T15:23:47.541Z,18.86
2023-08-08T15:26:17.320Z,18.89
2023-08-08T15:28:43.846Z,18.92
2023-08-08T15:31:10.365Z,18.91
2023-08-08T15:33:37.820Z,18.85
2023-08-08T15:36:04.578Z,18.76
2023-08-08T15:38:31.364Z,18.83
2023-08-08T15:40:58.166Z,18.89
2023-08-08T15:43:25.839Z,18.94
2023-08-08T15:45:53.148Z,18.94
2023-08-08T15:48:19.675Z,18.91
2023-08-08T15:50:46.598Z,18.93
2023-08-08T15:53:13.024Z,18.98
2023-08-08T15:55:39.479Z,18.98
2023-08-08T15:58:05.935Z,18.91
2023-08-08T16:00:32.387Z,18.88
2023-08-08T16:03:00.396Z,18.81
2023-08-08T16:05:29.110Z,18.72
2023-08-08T16:07:55.833Z,18.73
2023-08-08T16:10:23.981Z,18.75
2023-08-08T16:12:50.853Z,18.75
2023-08-08T16:15:19.059Z,18.75
2023-08-08T16:17:46.597Z,18.72
2023-08-08T16:20:13.184Z,18.75
2023-08-08T16:22:39.704Z,18.79
2023-08-08T16:25:06.674Z,18.83
2023-08-08T16:27:33.173Z,18.71
2023-08-08T16:30:00.084Z,18.66
2023-08-08T16:32:26.615Z,18.58
2023-08-08T16:34:54.025Z,18.54
2023-08-08T16:37:20.458Z,18.51
2023-08-08T16:39:48.114Z,18.48
2023-08-08T16:42:16.358Z,18.41
2023-08-08T16:44:43.057Z,18.41
2023-08-08T16:47:09.564Z,18.40
2023-08-08T16:49:37.017Z,18.40
2023-08-08T16:52:04.079Z,18.41
2023-08-08T16:54:30.903Z,18.36
2023-08-08T16:56:57.440Z,18.34
2023-08-08T16:59:23.948Z,18.29
2023-08-08T17:01:50.394Z,18.23
2023-08-08T17:04:18.028Z,18.23
2023-08-08T17:06:44.715Z,18.26
2023-08-08T17:09:11.262Z,18.25
2023-08-08T17:11:38.393Z,18.28
2023-08-08T17:14:05.368Z,18.28
2023-08-08T17:16:32.197Z,18.25
2023-08-08T17:18:58.830Z,18.24
2023-08-08T17:21:25.341Z,18.20
2023-08-08T17:23:51.997Z,18.18
2023-08-08T17:26:18.630Z,18.15
2023-08-08T17:28:45.121Z,18.14
2023-08-08T17:31:11.670Z,18.15
2023-08-08T17:33:38.576Z,18.16
2023-08-08T17:36:05.331Z,18.10
2023-08-08T17:38:31.922Z,18.07
2023-08-08T17:40:58.442Z,18.07
2023-08-08T17:43:24.901Z,18.08
2023-08-08T17:45:51.431Z,18.05
2023-08-08T17:48:18.004Z,18.02
2023-08-08T17:50:44.482Z,18.04
2023-08-08T17:53:10.956Z,18.05
2023-08-08T17:55:39.269Z,18.06
2023-08-08T17:58:05.775Z,18.02
2023-08-08T18:00:32.408Z,18.00
2023-08-08T18:02:59.225Z,18.01
2023-08-08T18:05:25.923Z,18.04
2023-08-08T18:07:52.431Z,18.05
2023-08-08T18:10:19.034Z,18.05
2023-08-08T18:12:45.441Z,18.02
2023-08-08T18:15:11.913Z,18.01
2023-08-08T18:17:38.394Z,18.02
2023-08-08T18:20:09.515Z,17.99
2023-08-08T18:22:36.706Z,18.00
2023-08-08T18:25:03.997Z,17.98
2023-08-08T18:27:30.523Z,17.98
2023-08-08T18:29:56.921Z,17.96
2023-08-08T18:32:23.436Z,17.94
2023-08-08T18:34:49.882Z,17.93
2023-08-08T18:37:16.371Z,17.87
2023-08-08T18:39:42.816Z,17.85
2023-08-08T18:42:09.267Z,17.78
2023-08-08T18:44:35.830Z,17.78
2023-08-08T18:47:02.241Z,17.81
2023-08-08T18:49:29.301Z,17.79
2023-08-08T18:51:55.763Z,17.82
2023-08-08T18:54:22.344Z,17.80
2023-08-08T18:56:48.870Z,17.76
2023-08-08T18:59:15.352Z,17.77
2023-08-08T19:01:41.836Z,17.77
2023-08-08T19:04:08.497Z,17.73
2023-08-08T19:06:35.024Z,17.74
2023-08-08T19:09:09.333Z,17.77
2023-08-08T19:11:37.045Z,17.81
2023-08-08T19:14:03.890Z,17.77
2023-08-08T19:16:31.776Z,17.78
2023-08-08T19:18:58.364Z,17.78
2023-08-08T19:21:24.972Z,17.77
2023-08-08T19:23:51.479Z,17.72
2023-08-08T19:26:17.921Z,17.71
2023-08-08T19:28:45.544Z,17.70
2023-08-08T19:31:13.167Z,17.69
2023-08-08T19:33:43.433Z,17.67
2023-08-08T19:36:15.081Z,17.65
2023-08-08T19:38:41.525Z,17.57
2023-08-08T19:41:09.126Z,17.47
2023-08-08T19:43:35.649Z,17.46
2023-08-08T19:46:02.139Z,17.40
2023-08-08T19:48:28.635Z,17.34
2023-08-08T19:50:55.121Z,17.34
2023-08-08T19:53:21.616Z,17.30
2023-08-08T19:55:48.567Z,17.28
2023-08-08T19:58:16.784Z,17.28
2023-08-08T20:00:43.433Z,17.26
2023-08-08T20:03:10.105Z,17.25
2023-08-08T20:05:36.600Z,17.26
2023-08-08T20:08:03.162Z,17.24
2023-08-08T20:10:29.568Z,17.22
2023-08-08T20:12:56.009Z,17.20
2023-08-08T20:15:22.519Z,17.21
2023-08-08T20:17:49.068Z,17.18
2023-08-08T20:20:15.643Z,17.14
2023-08-08T20:22:42.144Z,17.15
2023-08-08T20:25:09.056Z,17.13
2023-08-08T20:27:35.505Z,17.11
2023-08-08T20:30:02.207Z,17.06
2023-08-08T20:32:28.770Z,17.03
2023-08-08T20:34:55.357Z,16.99
2023-08-08T20:37:21.858Z,16.97
2023-08-08T20:39:48.349Z,16.97
2023-08-08T20:42:14.833Z,16.96
2023-08-08T20:44:41.298Z,16.91
2023-08-08T20:47:07.700Z,16.91
2023-08-08T20:49:34.204Z,16.90
2023-08-08T20:52:00.689Z,16.90
2023-08-08T20:54:27.927Z,16.89
2023-08-08T20:56:59.364Z,16.90
2023-08-08T20:59:26.850Z,16.86
2023-08-08T21:01:54.215Z,16.81
2023-08-08T21:04:22.229Z,16.78
2023-08-08T21:06:48.780Z,16.73
2023-08-08T21:09:15.269Z,16.72
2023-08-08T21:11:41.721Z,16.69
2023-08-08T21:14:08.128Z,16.68
2023-08-08T21:16:34.615Z,16.68
2023-08-08T21:19:01.121Z,16.68
2023-08-08T21:21:27.532Z,16.67
2023-08-08T21:23:55.110Z,16.65
2023-08-08T21:26:33.788Z,16.65
2023-08-08T21:29:04.755Z,16.65
2023-08-08T21:31:31.257Z,16.68
2023-08-08T21:33:57.684Z,16.70
2023-08-08T21:36:24.193Z,16.67
2023-08-08T21:38:50.617Z,16.68
2023-08-08T21:41:17.009Z,16.69
2023-08-08T21:43:43.453Z,16.70
2023-08-08T21:46:09.940Z,16.69
2023-08-08T21:48:36.369Z,16.70
2023-08-08T21:51:02.886Z,16.71
2023-08-08T21:53:29.682Z,16.70
2023-08-08T21:55:56.168Z,16.73
2023-08-08T21:58:22.635Z,16.75
2023-08-08T22:00:49.116Z,16.73
2023-08-08T22:03:15.838Z,16.74
2023-08-08T22:05:42.739Z,16.73
2023-08-08T22:08:09.175Z,16.72
2023-08-08T22:10:35.738Z,16.70
2023-08-08T22:13:03.143Z,16.67
2023-08-08T22:15:29.772Z,16.65
2023-08-08T22:18:05.573Z,16.66
2023-08-08T22:20:32.363Z,16.67
2023-08-08T22:23:09.511Z,16.65
2023-08-08T22:25:45.155Z,16.66
2023-08-08T22:28:11.613Z,16.65
2023-08-08T22:30:38.088Z,16.63
2023-08-08T22:33:05.132Z,16.60
2023-08-08T22:35:31.676Z,16.60
2023-08-08T22:37:58.117Z,16.62
2023-08-08T22:40:24.606Z,16.61
2023-08-08T22:42:52.138Z,16.63
2023-08-08T22:45:18.943Z,16.63
2023-08-08T22:47:45.496Z,16.64
2023-08-08T22:50:11.976Z,16.64
2023-08-08T22:52:38.498Z,16.64
2023-08-08T22:55:05.758Z,16.64
2023-08-08T22:57:32.218Z,16.63
2023-08-08T22:59:58.690Z,16.65
2023-08-08T23:02:25.194Z,16.65
2023-08-08T23:04:51.936Z,16.66
2023-08-08T23:07:19.402Z,16.66
2023-08-08T23:09:46.097Z,16.66
2023-08-08T23:12:12.537Z,16.66
2023-08-08T23:14:39.016Z,16.64
2023-08-08T23:17:05.489Z,16.65
2023-08-08T23:19:31.990Z,16.66
2023-08-08T23:21:58.484Z,16.66
2023-08-08T23:24:25.059Z,16.60
2023-08-08T23:26:51.874Z,16.58
2023-08-08T23:29:18.387Z,16.55
2023-08-08T23:31:44.882Z,16.53
2023-08-08T23:34:11.357Z,16.53
2023-08-08T23:36:37.911Z,16.51
2023-08-08T23:39:05.545Z,16.51
2023-08-08T23:41:32.166Z,16.51
2023-08-08T23:43:58.810Z,16.50
2023-08-08T23:46:26.070Z,16.51
2023-08-08T23:48:52.577Z,16.49
2023-08-08T23:51:19.005Z,16.46
2023-08-08T23:53:45.825Z,16.48
2023-08-08T23:56:12.337Z,16.46
2023-08-08T23:58:38.803Z,16.45
